Sarcobatus Flat, Nevada Weather observations

Data are for observation ending at time listed.
 Day   Time    Ave.   Ave.  Ave.  Vector   Max.   Stn.    Total    Solar   Ave.  
  of    of     Air    Rel.  Wind   Wind    Wind   Baro.  Precip.   Rad.    Soil  
Year   Day     Temp.  Hum.  Speed  Dir.    Gust   Pres.                    Temp. 
2014   (PST)    F      %     mph   deg.    mph     mb.     in.     W/m2     F   
------------------------------------------------------------------------------
 206   11:10   96.5     6    7.5   244     13.8   876.6    0.00    1020    999.0
 206   11:20   96.3     6    5.3   223     18.7   876.4    0.00    1026    999.0
 206   11:30   98.0     6    8.8   214     18.4   876.3    0.00    1035    999.0
 206   11:40   98.5     6   11.0   189     21.3   876.4    0.00    1047    999.0
 206   11:50   99.2     5   14.5   159     21.9   876.1    0.00    1051    999.0
 206   12:00   99.9     5   15.2   158     23.2   876.0    0.00    1050    999.0
 206   12:10  100.3     5   14.0   169     25.4   875.8    0.00    1048    999.0
 206   12:20  100.8     5   12.8   228     19.7   875.8    0.00    1048    999.0
 206   12:30  100.0     6   13.1   243     22.4   875.8    0.00    1041    999.0
 206   12:40  100.3     5   11.6   217     18.7   875.7    0.00    1036    999.0
 206   12:50  100.4     6   12.6   213     20.4   875.8    0.00    1041    999.0
 206   13:00  101.1     5   13.9   218     20.4   875.7    0.00    1016    999.0
 206   13:10  100.6     5   14.2   233     24.0   875.6    0.00    1008    999.0
 206   13:20  100.5     5   13.1   242     23.4   875.6    0.00     990    999.0
 206   13:30  100.1     5   11.3   230     19.1   875.5    0.00     972    999.0
 206   13:40  101.3     5   17.2   176     25.5   875.3    0.00     955    999.0
 206   13:50  101.3     5   16.1   187     28.6   875.3    0.00     934    999.0
 206   14:00  100.9     5   15.7   172     26.5   875.2    0.00     919    999.0
 206   14:10  101.2     5   15.4   166     26.0   875.0    0.00     892    999.0
 206   14:20  100.9     5   17.2   166     25.7   874.9    0.00     869    999.0
 206   14:30  100.9     5   14.6   196     28.3   874.8    0.00     849    999.0
 206   14:40  101.0     5   16.9   177     31.7   874.8    0.00     823    999.0
 206   14:50  100.3     6   12.6   166     21.3   874.7    0.00     796    999.0
 206   15:00  100.6     6   14.7   155     23.6   874.5    0.00     769    999.0
 206   15:10  101.0     6   16.3   164     28.8   874.4    0.00     743    999.0
 206   15:20  100.9     6   15.8   173     27.3   874.5    0.00     710    999.0
 206   15:30  101.2     6   11.9   191     20.0   874.4    0.00     680    999.0
 206   15:40  101.1     6   14.0   157     23.2   874.2    0.00     651    999.0
 206   15:50  100.4     6   13.9   166     21.7   874.2    0.00     614    999.0
 206   16:00  100.3     6   16.2   153     23.2   874.1    0.00     564    999.0
 206   16:10  101.0     6   15.8   183     22.9   874.1    0.00     568    999.0
 206   16:20  100.4     6   16.6   174     25.2   874.1    0.00     534    999.0
 206   16:30  100.1     6   19.6   173     28.6   874.0    0.00     477    999.0
 206   16:40   99.6     6   20.6   160     27.7   874.0    0.00     418    999.0
 206   16:50   99.3     6   19.0   155     26.7   874.0    0.00     400    999.0
 206   17:00   98.7     6   19.3   141     28.7   873.9    0.00     330    999.0
 206   17:10   98.9     7   18.3   169     25.4   874.0    0.00     292    999.0
 206   17:20   98.1     8   22.0   166     28.6   874.0    0.00     273    999.0
 206   17:30   97.6     8   20.8   163     27.6   874.1    0.00     302    999.0
 206   17:40   97.3     8   21.1   166     30.2   874.2    0.00     232    999.0
 206   17:50   97.0     8   19.4   168     25.4   874.2    0.00     206    999.0
 206   18:00   96.7     9   21.4   163     31.2   874.3    0.00     217    999.0
 206   18:10   96.2     9   20.8   160     30.4   874.4    0.00     175    999.0
 206   18:20   95.9     9   20.1   167     27.6   874.5    0.00      86    999.0
 206   18:30   95.3     9   19.0   163     25.1   874.6    0.00      57    999.0
 206   18:40   94.6     9   20.2   158     26.5   874.7    0.00      44    999.0
 206   18:50   94.1    10   18.7   160     27.3   874.9    0.00      32    999.0
 206   19:00   93.2    10   17.0   163     23.0   875.0    0.00      12    999.0
 206   19:10   92.7    10   18.1   157     23.8   875.1    0.00       9    999.0
 206   19:20   92.2    10   17.9   152     25.3   875.3    0.00       2    999.0
 206   19:30   91.4    11   15.5   141     19.9   875.5    0.00       0    999.0
 206   19:40   90.8    11   15.9   135     19.5   875.6    0.00       0    999.0
 206   19:50   90.6    14   16.7   128     20.7   875.8    0.00       0    999.0
 206   20:00   89.6    16   17.2   126     22.8   875.9    0.00       0    999.0
 206   20:10   89.2    18   16.6   130     20.8   876.1    0.00       0    999.0
 206   20:20   88.7    18   16.5   134     21.5   876.2    0.00       0    999.0
 206   20:30   88.5    19   16.1   130     21.4   876.3    0.00       0    999.0
 206   20:40   88.3    20   16.3   129     21.9   876.5    0.00       0    999.0
 206   20:50   88.1    20   17.3   124     22.6   876.6    0.00       0    999.0
 206   21:00   87.8    21   16.6   127     22.6   876.7    0.00       0    999.0
 206   21:10   87.5    21   15.2   127     20.0   876.8    0.00       0    999.0
 206   21:20   87.3    22   16.4   125     20.5   876.8    0.00       0    999.0
 206   21:30   86.9    22   15.5   127     21.0   876.8    0.00       0    999.0
 206   21:40   86.5    22   13.2   131     17.5   877.0    0.00       0    999.0
 206   21:50   86.1    22   11.5   131     16.7   877.0    0.00       0    999.0
 206   22:00   85.9    23   11.9   129     17.8   877.1    0.00       0    999.0
 206   22:10   85.6    23   12.8   130     15.9   877.2    0.00       0    999.0
 206   22:20   85.0    23   11.6   129     15.0   877.2    0.00       0    999.0
 206   22:30   84.8    23   11.1   133     14.8   877.4    0.00       0    999.0
 206   22:40   84.2    23    9.1   136     12.1   877.5    0.00       0    999.0
 206   22:50   83.5    23    8.4   135     10.8   877.6    0.00       0    999.0
 206   23:00   83.0    24    9.4   133     12.0   877.7    0.00       0    999.0
 206   23:10   82.3    24    9.0   129     11.5   877.8    0.00       0    999.0
 206   23:20   81.6    24    9.2   125     11.7   877.9    0.00       0    999.0
 206   23:30   81.5    24    9.5   119     11.2   877.9    0.00       0    999.0
 206   23:40   81.7    24   10.1   116     12.2   877.9    0.00       0    999.0
 206   23:50   81.4    23    9.6   112     12.0   877.9    0.00       0    999.0
 207    0:00   81.1    23   10.9   110     13.6   877.9    0.00       0    999.0
 207    0:10   80.5    22    9.8   105     12.6   877.9    0.00       0    999.0
 207    0:20   80.5    21   10.9   106     13.5   877.9    0.00       0    999.0
 207    0:30   80.8    19   10.8   103     14.0   877.9    0.00       0    999.0
 207    0:40   80.8    18   10.8   107     14.3   878.0    0.00       0    999.0
 207    0:50   80.9    16    9.6   114     13.3   878.1    0.00       0    999.0
 207    1:00   80.3    16    7.9   119     11.1   878.2    0.00       0    999.0
 207    1:10   79.2    17    2.1   191      4.7   878.2    0.00       0    999.0
 207    1:20   77.6    22    5.6   283      7.7   878.3    0.00       0    999.0
 207    1:30   75.9    24    5.2   277      6.6   878.3    0.00       0    999.0
 207    1:40   74.5    25    6.0   294      7.7   878.3    0.00       0    999.0
 207    1:50   72.9    23    4.4   329      5.7   878.3    0.00       0    999.0
 207    2:00   73.2    24    4.4   358      5.7   878.3    0.00       0    999.0
 207    2:10   74.4    23    4.3     3      5.6   878.3    0.00       0    999.0
 207    2:20   74.2    23    4.4    10      6.6   878.4    0.00       0    999.0
 207    2:30   73.4    23    4.5    19      6.0   878.4    0.00       0    999.0
 207    2:40   72.9    21    3.0    16      5.3   878.5    0.00       0    999.0
 207    2:50   73.2    20    2.3    22      3.7   878.5    0.00       0    999.0
 207    3:00   72.8    20    1.5   340      4.6   878.7    0.00       0    999.0
 207    3:10   68.7    24    3.7   324      5.4   878.8    0.00       0    999.0
 207    3:20   67.3    28    4.5   324      6.5   878.9    0.00       0    999.0
 207    3:30   66.8    30    4.2   341      6.0   879.0    0.00       0    999.0
 207    3:40   65.8    30    5.1   333      6.2   879.1    0.00       0    999.0
 207    3:50   65.5    30    4.5   334      6.1   879.0    0.00       0    999.0
 207    4:00   65.9    28    4.4   354      5.2   879.3    0.00       0    999.0
 207    4:10   64.9    29    3.6   340      4.6   879.3    0.00       0    999.0
 207    4:20   64.7    29    5.6   349      6.8   879.3    0.00       0    999.0
 207    4:30   65.6    25    5.5     2      6.9   879.5    0.00       0    999.0
 207    4:40   64.9    26    1.7   255      5.5   879.6    0.00       1    999.0
 207    4:50   63.7    28    3.0   312      4.7   879.7    0.00       3    999.0
 207    5:00   63.1    28    4.9   329      6.7   879.7    0.00      10    999.0
 207    5:10   63.7    26    4.2   348      6.2   879.7    0.00      16    999.0
 207    5:20   64.2    25    1.2   342      2.9   879.8    0.00      32    999.0
 207    5:30   64.1    27    2.7   310      4.0   880.1    0.00      78    999.0
 207    5:40   66.7    27    0.8   319      2.9   880.3    0.00     110    999.0
 207    5:50   68.1    26    1.2   324      3.1   880.3    0.00     144    999.0
 207    6:00   69.5    23    0.3   324      1.7   880.4    0.00     164    999.0
 207    6:10   71.3    21    0.2   324      1.2   880.5    0.00     178    999.0
 207    6:20   73.7    19    0.0     0      0.0   880.6    0.00     154    999.0
 207    6:30   74.9    18    0.0     0      0.0   880.6    0.00     293    999.0
 207    6:40   76.8    17    0.0     0      0.0   880.7    0.00     305    999.0
 207    6:50   79.0    16    0.0   300      0.1   880.7    0.00     348    999.0
 207    7:00   81.6    15    0.0   300      0.5   880.7    0.00     378    999.0
 207    7:10   82.1    15    0.9   196      3.6   880.7    0.00     421    999.0
 207    7:20   82.0    16    2.7   181      5.3   880.8    0.00     422    999.0
 207    7:30   82.6    16    4.9   160      7.4   880.8    0.00     505    999.0
 207    7:40   83.7    15    6.9   132     11.6   880.8    0.00     552    999.0
 207    7:50   84.6    14    7.7   143     14.7   880.8    0.00     577    999.0
 207    8:00   85.1    14    7.1   137     13.6   880.9    0.00     594    999.0
 207    8:10   85.5    14    8.3   141     13.4   880.8    0.00     589    999.0
 207    8:20   86.2    14    7.0   148     12.1   880.8    0.00     652    999.0
 207    8:30   86.2    14    6.8   160     10.5   880.8    0.00     670    999.0
 207    8:40   86.8    14    5.7   154     11.8   880.7    0.00     710    999.0
 207    8:50   87.0    14    5.4   168     12.0   880.7    0.00     733    999.0
 207    9:00   87.6    14    5.9   160     11.2   880.8    0.00     758    999.0
 207    9:10   88.2    14    4.8   149     12.7   880.7    0.00     777    999.0
 207    9:20   88.4    13    5.1   149      9.6   880.7    0.00     802    999.0
 207    9:30   89.1    13    6.6   187     13.4   880.7    0.00     842    999.0
 207    9:40   89.7    13    6.8   165     13.2   880.7    0.00     872    999.0
 207    9:50   90.4    13    6.4   185     12.7   880.7    0.00     785    999.0
 207   10:00   91.0    12    7.3   178     12.4   880.7    0.00     757    999.0
 207   10:10   91.4    12    7.3   175     12.8   880.6    0.00     757    999.0
 207   10:20   90.7    12    8.7   158     13.2   880.6    0.00     787    999.0
 207   10:30   91.3    12    7.0   182     14.5   880.6    0.00     869    999.0
 207   10:40   92.6    11    7.4   161     14.1   880.6    0.00     922    999.0
 207   10:50   92.5    12    5.9   171     12.0   880.5    0.00    1008    999.0
 207   11:00   94.2    11    7.9   149     18.3   880.4    0.00     978    999.0

Return to Sarcobatus Flat, Nevada graphs page.


Western Regional Climate Center,wrcc@dri.edu